createdAt,value
2018-12-21T00:00:38.121Z,6.10
2018-12-21T00:03:06.546Z,8.90
2018-12-21T00:05:34.856Z,8.40
2018-12-21T00:08:03.359Z,6.70
2018-12-21T00:10:31.709Z,5.70
2018-12-21T00:13:00.206Z,6.60
2018-12-21T00:15:28.533Z,8.53
2018-12-21T00:17:56.981Z,6.07
2018-12-21T00:20:25.498Z,6.33
2018-12-21T00:22:53.881Z,6.23
2018-12-21T00:25:22.329Z,5.97
2018-12-21T00:27:50.708Z,6.03
2018-12-21T00:30:22.379Z,8.10
2018-12-21T00:32:56.521Z,7.03
2018-12-21T00:35:30.233Z,5.10
2018-12-21T00:38:05.662Z,8.47
2018-12-21T00:40:39.613Z,5.73
2018-12-21T00:43:43.325Z,5.57
2018-12-21T00:46:16.094Z,3.70
2018-12-21T00:48:44.789Z,4.20
2018-12-21T00:51:13.214Z,4.47
2018-12-21T00:53:41.594Z,3.67
2018-12-21T00:56:09.926Z,5.03
2018-12-21T00:58:38.398Z,3.40
2018-12-21T01:01:06.806Z,2.80
2018-12-21T01:03:35.305Z,3.83
2018-12-21T01:06:03.938Z,3.97
2018-12-21T01:08:32.381Z,4.27
2018-12-21T01:11:00.776Z,5.70
2018-12-21T01:13:29.537Z,4.33
2018-12-21T01:15:58.094Z,5.90
2018-12-21T01:18:26.419Z,4.10
2018-12-21T01:20:54.658Z,4.10
2018-12-21T01:23:23.110Z,5.27
2018-12-21T01:25:53.210Z,8.07
2018-12-21T01:28:21.606Z,8.43
2018-12-21T01:30:49.864Z,6.27
2018-12-21T01:33:18.280Z,7.63
2018-12-21T01:35:46.709Z,5.67
2018-12-21T01:38:15.064Z,6.27
2018-12-21T01:40:43.374Z,6.70
2018-12-21T01:43:11.881Z,8.77
2018-12-21T01:45:40.358Z,13.60
2018-12-21T01:48:08.693Z,12.90
2018-12-21T01:50:37.028Z,12.93
2018-12-21T01:53:05.396Z,12.87
2018-12-21T01:55:33.788Z,15.77
2018-12-21T01:58:02.181Z,13.67
2018-12-21T02:00:30.786Z,13.13
2018-12-21T02:02:59.144Z,13.03
2018-12-21T02:05:27.645Z,13.83
2018-12-21T02:07:56.026Z,11.93
2018-12-21T02:10:24.480Z,12.27
2018-12-21T02:12:52.876Z,12.13
2018-12-21T02:15:21.411Z,11.00
2018-12-21T02:17:49.700Z,12.03
2018-12-21T02:20:18.230Z,10.27
2018-12-21T02:22:46.822Z,10.57
2018-12-21T02:25:15.254Z,11.63
2018-12-21T02:27:43.618Z,10.93
2018-12-21T02:30:11.948Z,11.83
2018-12-21T02:32:40.317Z,9.90
2018-12-21T02:35:09.373Z,9.63
2018-12-21T02:37:37.701Z,10.93
2018-12-21T02:40:06.861Z,10.33
2018-12-21T02:42:35.232Z,9.67
2018-12-21T02:45:03.902Z,9.67
2018-12-21T02:47:32.129Z,10.30
2018-12-21T02:50:00.462Z,11.77
2018-12-21T02:52:28.844Z,9.80
2018-12-21T02:54:57.455Z,9.73
2018-12-21T02:57:25.868Z,10.37
2018-12-21T02:59:54.103Z,8.60
2018-12-21T03:02:22.502Z,7.10
2018-12-21T03:04:50.857Z,6.17
2018-12-21T03:07:19.273Z,5.97
2018-12-21T03:09:47.691Z,6.47
2018-12-21T03:12:16.069Z,6.23
2018-12-21T03:14:44.506Z,5.20
2018-12-21T03:17:12.880Z,5.03
2018-12-21T03:19:41.273Z,7.70
2018-12-21T03:22:14.673Z,7.57
2018-12-21T03:24:40.007Z,5.23
2018-12-21T03:27:08.363Z,6.33
2018-12-21T03:29:36.698Z,5.77
2018-12-21T03:32:05.194Z,7.63
2018-12-21T03:34:33.775Z,6.93
2018-12-21T03:37:02.125Z,9.17
2018-12-21T03:39:30.546Z,7.90
2018-12-21T03:41:58.919Z,7.90
2018-12-21T03:44:27.346Z,9.37
2018-12-21T03:46:55.675Z,8.43
2018-12-21T03:49:24.004Z,7.33
2018-12-21T03:51:52.282Z,8.10
2018-12-21T03:54:20.537Z,8.80
2018-12-21T03:56:48.986Z,8.17
2018-12-21T03:59:17.319Z,8.00
2018-12-21T04:01:45.796Z,7.90
2018-12-21T04:04:14.161Z,9.23
2018-12-21T04:06:42.543Z,10.67
2018-12-21T04:09:10.829Z,7.20
2018-12-21T04:11:39.189Z,6.93
2018-12-21T04:14:07.573Z,5.97
2018-12-21T04:16:35.912Z,6.93
2018-12-21T04:19:04.276Z,7.53
2018-12-21T04:21:32.665Z,7.87
2018-12-21T04:24:01.261Z,8.33
2018-12-21T04:26:29.667Z,8.50
2018-12-21T04:28:58.037Z,7.43
2018-12-21T04:31:26.329Z,7.73
2018-12-21T04:33:55.037Z,6.97
2018-12-21T04:36:23.458Z,8.10
2018-12-21T04:38:51.866Z,10.80
2018-12-21T04:41:20.162Z,13.97
2018-12-21T04:43:48.580Z,15.03
2018-12-21T04:46:17.029Z,14.73
2018-12-21T04:48:45.454Z,17.47
2018-12-21T04:51:13.858Z,18.03
2018-12-21T04:53:42.352Z,17.30
2018-12-21T04:56:10.693Z,17.97
2018-12-21T04:58:39.461Z,16.63
2018-12-21T05:01:07.826Z,15.40
2018-12-21T05:03:36.193Z,16.33
2018-12-21T05:06:04.645Z,14.70
2018-12-21T05:08:32.993Z,15.20
2018-12-21T05:11:01.500Z,13.23
2018-12-21T05:13:29.871Z,12.23
2018-12-21T05:15:58.308Z,10.43
2018-12-21T05:18:26.593Z,10.37
2018-12-21T05:20:55.022Z,9.50
2018-12-21T05:23:23.421Z,8.93
2018-12-21T05:25:51.782Z,9.93
2018-12-21T05:28:20.342Z,9.17
2018-12-21T05:30:48.746Z,9.10
2018-12-21T05:33:17.003Z,8.97
2018-12-21T05:35:45.446Z,9.90
2018-12-21T05:38:13.711Z,7.87
2018-12-21T05:40:42.040Z,7.50
2018-12-21T05:43:10.417Z,7.53
2018-12-21T05:45:38.839Z,8.20
2018-12-21T05:48:07.308Z,8.73
2018-12-21T05:50:35.605Z,8.37
2018-12-21T05:53:03.931Z,9.07
2018-12-21T05:55:32.278Z,9.60
2018-12-21T05:58:00.550Z,10.83
2018-12-21T06:00:28.999Z,10.03
2018-12-21T06:02:57.275Z,8.30
2018-12-21T06:05:26.174Z,7.73
2018-12-21T06:07:54.473Z,6.03
2018-12-21T06:10:23.044Z,5.70
2018-12-21T06:12:51.430Z,7.97
2018-12-21T06:15:19.945Z,6.60
2018-12-21T06:17:48.386Z,7.10
2018-12-21T06:20:16.861Z,5.77
2018-12-21T06:22:51.886Z,8.67
2018-12-21T06:25:20.299Z,6.87
2018-12-21T06:27:48.643Z,8.00
2018-12-21T06:30:17.217Z,9.43
2018-12-21T06:32:45.693Z,10.10
2018-12-21T06:35:14.215Z,16.03
2018-12-21T06:37:42.619Z,15.57
2018-12-21T06:40:11.378Z,16.73
2018-12-21T06:42:39.717Z,21.43
2018-12-21T06:45:08.069Z,19.50
2018-12-21T06:47:36.465Z,19.97
2018-12-21T06:50:05.853Z,18.97
2018-12-21T06:52:34.234Z,17.80
2018-12-21T06:55:02.548Z,17.30
2018-12-21T06:57:31.076Z,17.23
2018-12-21T06:59:59.471Z,16.90
2018-12-21T07:02:27.786Z,17.23
2018-12-21T07:04:56.080Z,16.27
2018-12-21T07:07:24.500Z,17.40
2018-12-21T07:09:52.890Z,16.37
2018-12-21T07:12:21.269Z,14.93
2018-12-21T07:14:49.942Z,13.43
2018-12-21T07:17:18.629Z,13.40
2018-12-21T07:19:47.265Z,12.80
2018-12-21T07:22:15.829Z,13.70
2018-12-21T07:24:44.308Z,13.70
2018-12-21T07:27:12.740Z,12.73
2018-12-21T07:29:41.121Z,13.57
2018-12-21T07:32:41.652Z,13.20
2018-12-21T07:35:30.442Z,12.87
2018-12-21T07:37:58.791Z,10.97
2018-12-21T07:40:27.673Z,13.50
2018-12-21T07:42:56.064Z,11.53
2018-12-21T07:45:24.504Z,15.20
2018-12-21T07:47:52.805Z,19.77
2018-12-21T07:50:21.197Z,19.00
2018-12-21T07:52:49.605Z,19.80
2018-12-21T07:55:18.172Z,15.13
2018-12-21T07:57:46.743Z,15.20
2018-12-21T08:00:15.097Z,14.90
2018-12-21T08:02:43.586Z,12.40
2018-12-21T08:05:12.350Z,14.17
2018-12-21T08:07:40.561Z,17.60
2018-12-21T08:10:16.229Z,14.07
2018-12-21T08:12:44.490Z,12.37
2018-12-21T08:15:12.908Z,11.77
2018-12-21T08:17:41.254Z,11.87
2018-12-21T08:20:10.630Z,14.00
2018-12-21T08:22:39.026Z,19.33
2018-12-21T08:25:07.824Z,22.27
2018-12-21T08:27:36.135Z,25.77
2018-12-21T08:30:05.510Z,27.77
2018-12-21T08:32:34.040Z,31.97
2018-12-21T08:35:02.562Z,34.13
2018-12-21T08:37:30.954Z,32.37
2018-12-21T08:39:59.373Z,47.97
2018-12-21T08:42:28.060Z,41.87
2018-12-21T08:44:56.565Z,44.07
2018-12-21T08:47:25.066Z,40.40
2018-12-21T08:49:53.301Z,36.50
2018-12-21T08:52:21.654Z,38.50
2018-12-21T08:54:49.965Z,36.10
2018-12-21T08:57:18.330Z,39.97
2018-12-21T08:59:46.630Z,39.17
2018-12-21T09:02:15.038Z,40.57
2018-12-21T09:04:43.563Z,41.33
2018-12-21T09:07:12.128Z,44.13
2018-12-21T09:09:40.554Z,43.50
2018-12-21T09:12:09.293Z,37.43
2018-12-21T09:15:04.779Z,37.83
2018-12-21T09:17:33.077Z,38.47
2018-12-21T09:20:01.394Z,43.20
2018-12-21T09:22:29.622Z,39.40
2018-12-21T09:24:57.934Z,45.50
2018-12-21T09:27:26.226Z,47.17
2018-12-21T09:29:54.542Z,51.67
2018-12-21T09:32:22.908Z,49.27
2018-12-21T09:34:51.338Z,44.03
2018-12-21T09:37:19.659Z,40.10
2018-12-21T09:39:47.998Z,44.67
2018-12-21T09:42:16.296Z,48.03
2018-12-21T09:44:52.349Z,46.93
2018-12-21T09:47:14.963Z,42.93
2018-12-21T09:49:43.429Z,42.43
2018-12-21T09:52:11.896Z,41.73
2018-12-21T09:54:40.348Z,41.77
2018-12-21T09:57:08.738Z,49.83
2018-12-21T09:59:36.978Z,56.93
2018-12-21T10:02:05.354Z,51.47
2018-12-21T10:04:33.737Z,48.43
2018-12-21T10:07:01.990Z,44.77
2018-12-21T10:09:30.306Z,42.90
2018-12-21T10:11:58.742Z,44.90
2018-12-21T10:14:48.052Z,48.53
2018-12-21T10:17:16.494Z,52.23
2018-12-21T10:19:44.857Z,44.60
2018-12-21T10:22:13.251Z,49.73
2018-12-21T10:24:41.665Z,51.33
2018-12-21T10:27:09.986Z,51.67
2018-12-21T10:29:38.205Z,54.67
2018-12-21T10:32:06.452Z,51.90
2018-12-21T10:34:34.657Z,46.33
2018-12-21T10:37:02.998Z,39.70
2018-12-21T10:39:31.397Z,38.07
2018-12-21T10:41:59.909Z,35.87
2018-12-21T10:44:28.287Z,37.23
2018-12-21T10:46:56.750Z,38.20
2018-12-21T10:49:25.144Z,39.00
2018-12-21T10:51:53.501Z,41.47
2018-12-21T10:54:26.817Z,41.27
2018-12-21T10:56:52.239Z,42.60
2018-12-21T10:59:21.179Z,45.30
2018-12-21T11:01:49.614Z,39.83
2018-12-21T11:04:18.060Z,36.67
2018-12-21T11:06:46.388Z,37.07
2018-12-21T11:09:14.885Z,37.10
2018-12-21T11:11:43.228Z,39.43
2018-12-21T11:14:11.613Z,44.73
2018-12-21T11:16:39.972Z,47.60
2018-12-21T11:19:08.399Z,44.50
2018-12-21T11:21:36.657Z,70.00
2018-12-21T11:24:05.145Z,80.50
2018-12-21T11:26:33.470Z,84.90
2018-12-21T11:29:01.816Z,87.93
2018-12-21T11:31:30.233Z,83.30
2018-12-21T11:33:58.557Z,77.13
2018-12-21T11:36:26.925Z,74.17
2018-12-21T11:38:55.300Z,72.23
2018-12-21T11:41:23.528Z,58.70
2018-12-21T11:43:51.962Z,43.57
2018-12-21T11:46:20.357Z,45.30
2018-12-21T11:48:48.789Z,49.43
2018-12-21T11:51:17.178Z,46.73
2018-12-21T11:53:45.587Z,42.77
2018-12-21T11:56:14.046Z,39.47
2018-12-21T11:58:42.504Z,37.07
2018-12-21T12:01:10.953Z,26.47
2018-12-21T12:03:39.285Z,22.03
2018-12-21T12:06:07.662Z,21.03
2018-12-21T12:08:36.078Z,17.53
2018-12-21T12:11:04.523Z,18.13
2018-12-21T12:13:32.862Z,18.70
2018-12-21T12:16:01.216Z,20.57
2018-12-21T12:18:29.605Z,19.93
2018-12-21T12:20:57.959Z,18.90
2018-12-21T12:23:26.329Z,26.10
2018-12-21T12:25:54.673Z,21.73
2018-12-21T12:28:23.049Z,18.97
2018-12-21T12:30:51.612Z,20.77
2018-12-21T12:33:20.012Z,19.60
2018-12-21T12:35:48.489Z,16.40
2018-12-21T12:38:16.849Z,14.13
2018-12-21T12:40:45.302Z,11.17
2018-12-21T12:43:13.599Z,10.20
2018-12-21T12:45:41.805Z,11.50
2018-12-21T12:48:10.174Z,10.93
2018-12-21T12:50:38.521Z,12.33
2018-12-21T12:53:06.951Z,11.17
2018-12-21T12:55:35.338Z,9.67
2018-12-21T12:58:03.806Z,10.40
2018-12-21T13:00:32.401Z,9.87
2018-12-21T13:03:00.798Z,7.50
2018-12-21T13:05:29.218Z,8.67
2018-12-21T13:07:57.738Z,7.33
2018-12-21T13:10:26.083Z,6.83
2018-12-21T13:12:54.384Z,6.90
2018-12-21T13:15:50.550Z,7.90
2018-12-21T13:18:18.945Z,9.67
2018-12-21T13:20:47.343Z,13.13
2018-12-21T13:23:15.700Z,12.27
2018-12-21T13:25:44.054Z,13.93
2018-12-21T13:28:12.445Z,13.30
2018-12-21T13:30:40.893Z,13.07
2018-12-21T13:33:09.422Z,11.00
2018-12-21T13:35:37.718Z,10.57
2018-12-21T13:38:05.986Z,10.70
2018-12-21T13:40:34.372Z,12.27
2018-12-21T13:43:02.596Z,16.40
2018-12-21T13:45:31.248Z,16.40
2018-12-21T13:47:59.620Z,17.37
2018-12-21T13:50:28.132Z,20.13
2018-12-21T13:52:56.364Z,20.10
2018-12-21T13:55:24.844Z,19.23
2018-12-21T13:57:53.189Z,20.53
2018-12-21T14:00:21.434Z,21.97
2018-12-21T14:02:49.890Z,22.50
2018-12-21T14:05:18.253Z,20.67
2018-12-21T14:07:46.754Z,26.87
2018-12-21T14:10:14.977Z,23.83
2018-12-21T14:12:43.554Z,20.77
2018-12-21T14:15:48.616Z,19.67
2018-12-21T14:18:17.050Z,16.00
2018-12-21T14:20:45.499Z,17.07
2018-12-21T14:23:13.892Z,22.13
2018-12-21T14:25:42.174Z,35.10
2018-12-21T14:28:10.487Z,23.00
2018-12-21T14:30:38.789Z,14.83
2018-12-21T14:33:07.606Z,11.13
2018-12-21T14:35:35.973Z,10.17
2018-12-21T14:38:04.277Z,9.10
2018-12-21T14:40:32.681Z,10.97
2018-12-21T14:43:01.337Z,12.07
2018-12-21T14:45:30.023Z,10.80
2018-12-21T14:47:58.517Z,14.40
2018-12-21T14:50:26.977Z,19.67
2018-12-21T14:52:55.761Z,24.93
2018-12-21T14:55:24.085Z,29.27
2018-12-21T14:57:52.530Z,45.23
2018-12-21T15:00:20.995Z,49.13
2018-12-21T15:02:49.442Z,39.13
2018-12-21T15:05:17.849Z,36.07
2018-12-21T15:07:46.177Z,36.50
2018-12-21T15:10:14.634Z,35.30
2018-12-21T15:12:43.050Z,34.30
2018-12-21T15:15:42.703Z,25.10
2018-12-21T15:18:11.130Z,21.07
2018-12-21T15:20:39.578Z,24.03
2018-12-21T15:23:07.842Z,28.47
2018-12-21T15:25:36.254Z,29.90
2018-12-21T15:28:04.769Z,31.50
2018-12-21T15:30:33.559Z,33.70
2018-12-21T15:33:01.827Z,34.27
2018-12-21T15:35:30.515Z,34.03
2018-12-21T15:37:58.960Z,31.93
2018-12-21T15:40:27.489Z,29.87
2018-12-21T15:42:55.832Z,31.63
2018-12-21T15:45:24.760Z,33.03
2018-12-21T15:47:53.513Z,29.20
2018-12-21T15:50:22.017Z,29.87
2018-12-21T15:52:50.647Z,33.10
2018-12-21T15:55:19.185Z,35.10
2018-12-21T15:57:47.744Z,36.03
2018-12-21T16:00:16.767Z,31.57
2018-12-21T16:02:48.677Z,29.90
2018-12-21T16:05:17.883Z,33.70
2018-12-21T16:07:46.209Z,70.93
2018-12-21T16:10:14.513Z,77.97
2018-12-21T16:12:42.924Z,57.00
2018-12-21T16:18:26.140Z,41.27
2018-12-21T16:20:54.559Z,35.50
2018-12-21T16:23:23.005Z,31.57
2018-12-21T16:25:51.826Z,29.93
2018-12-21T16:28:20.265Z,33.47
2018-12-21T16:30:48.670Z,51.87
2018-12-21T16:33:17.039Z,54.63
2018-12-21T16:35:45.463Z,48.17
2018-12-21T16:38:15.863Z,68.00
2018-12-21T16:40:44.109Z,77.83
2018-12-21T16:43:12.464Z,62.67
2018-12-21T16:45:40.801Z,46.33
2018-12-21T16:48:09.003Z,34.63
2018-12-21T16:50:37.246Z,24.00
2018-12-21T16:53:05.703Z,16.50
2018-12-21T16:55:34.178Z,20.03
2018-12-21T16:58:02.566Z,18.97
2018-12-21T17:00:30.937Z,17.53
2018-12-21T17:02:59.219Z,15.93
2018-12-21T17:05:27.691Z,15.10
2018-12-21T17:07:56.049Z,20.33
2018-12-21T17:10:25.068Z,26.50
2018-12-21T17:12:53.653Z,31.97
2018-12-21T17:18:42.513Z,23.50
2018-12-21T17:21:10.905Z,19.37
2018-12-21T17:23:39.214Z,14.73
2018-12-21T17:26:07.570Z,11.70
2018-12-21T17:28:35.950Z,14.97
2018-12-21T17:31:04.395Z,12.60
2018-12-21T17:33:32.681Z,11.50
2018-12-21T17:36:01.070Z,13.33
2018-12-21T17:38:29.510Z,12.53
2018-12-21T17:40:57.810Z,17.00
2018-12-21T17:43:26.168Z,12.87
2018-12-21T17:45:54.568Z,13.53
2018-12-21T17:48:23.004Z,11.43
2018-12-21T17:50:51.491Z,15.17
2018-12-21T17:53:19.918Z,15.23
2018-12-21T17:55:48.239Z,14.60
2018-12-21T17:58:16.678Z,13.67
2018-12-21T18:00:44.962Z,14.13
2018-12-21T18:03:27.953Z,14.67
2018-12-21T18:05:56.309Z,15.67
2018-12-21T18:08:24.553Z,18.30
2018-12-21T18:10:52.834Z,13.97
2018-12-21T18:13:21.079Z,13.97
2018-12-21T18:19:07.187Z,13.77
2018-12-21T18:21:42.984Z,12.20
2018-12-21T18:24:11.229Z,13.40
2018-12-21T18:26:39.647Z,13.93
2018-12-21T18:29:07.966Z,10.60
2018-12-21T18:31:55.127Z,15.13
2018-12-21T18:34:39.226Z,12.57
2018-12-21T18:37:09.587Z,17.20
2018-12-21T18:39:37.990Z,12.87
2018-12-21T18:42:06.501Z,12.57
2018-12-21T18:44:34.812Z,10.90
2018-12-21T18:47:03.229Z,9.63
2018-12-21T18:49:31.769Z,13.30
2018-12-21T18:52:00.250Z,11.63
2018-12-21T18:54:28.905Z,11.13
2018-12-21T18:57:14.921Z,57.03
2018-12-21T18:59:43.314Z,51.33
2018-12-21T19:02:11.650Z,35.93
2018-12-21T19:04:40.058Z,23.90
2018-12-21T19:07:08.501Z,19.30
2018-12-21T19:09:36.946Z,19.07
2018-12-21T19:12:05.280Z,10.33
2018-12-21T19:15:22.465Z,11.90
2018-12-21T19:17:51.074Z,9.80
2018-12-21T19:20:19.538Z,10.63
2018-12-21T19:22:47.838Z,12.47
2018-12-21T19:25:16.176Z,12.87
2018-12-21T19:27:44.577Z,11.33
2018-12-21T19:30:13.642Z,13.67
2018-12-21T19:32:42.677Z,13.30
2018-12-21T19:35:12.618Z,16.13
2018-12-21T19:37:40.938Z,12.10
2018-12-21T19:40:11.337Z,17.43
2018-12-21T19:42:45.397Z,15.53
2018-12-21T19:45:14.182Z,17.60
2018-12-21T19:47:42.708Z,13.93
2018-12-21T19:50:12.277Z,15.03
2018-12-21T19:52:42.106Z,14.30
2018-12-21T19:55:40.108Z,13.70
2018-12-21T19:58:08.677Z,10.13
2018-12-21T20:00:37.915Z,11.80
2018-12-21T20:03:06.339Z,11.97
2018-12-21T20:05:34.678Z,12.90
2018-12-21T20:08:03.235Z,12.60
2018-12-21T20:10:31.534Z,13.20
2018-12-21T20:13:00.209Z,13.23
2018-12-21T20:16:05.169Z,11.73
2018-12-21T20:18:33.786Z,9.90
2018-12-21T20:21:02.195Z,11.70
2018-12-21T20:23:31.085Z,11.40
2018-12-21T20:25:59.712Z,8.27
2018-12-21T20:28:28.170Z,10.00
2018-12-21T20:30:57.733Z,8.20
2018-12-21T20:33:26.180Z,10.67
2018-12-21T20:35:54.520Z,11.60
2018-12-21T20:38:22.963Z,12.13
2018-12-21T20:40:51.222Z,9.53
2018-12-21T20:43:19.587Z,11.67
2018-12-21T20:45:48.110Z,7.53
2018-12-21T20:48:16.658Z,9.17
2018-12-21T20:50:44.990Z,9.53
2018-12-21T20:53:13.266Z,8.77
2018-12-21T20:55:41.538Z,12.00
2018-12-21T20:58:17.465Z,13.33
2018-12-21T21:00:45.749Z,13.93
2018-12-21T21:03:14.174Z,13.20
2018-12-21T21:05:44.056Z,11.23
2018-12-21T21:08:12.975Z,10.97
2018-12-21T21:10:41.502Z,13.17
2018-12-21T21:13:19.047Z,10.87
2018-12-21T21:15:54.287Z,10.63
2018-12-21T21:18:23.025Z,12.93
2018-12-21T21:20:51.943Z,12.03
2018-12-21T21:23:20.254Z,9.67
2018-12-21T21:26:24.914Z,11.63
2018-12-21T21:28:53.644Z,13.03
2018-12-21T21:31:22.330Z,14.93
2018-12-21T21:33:50.650Z,10.83
2018-12-21T21:36:19.054Z,14.30
2018-12-21T21:38:47.376Z,9.70
2018-12-21T21:41:15.695Z,14.47
2018-12-21T21:43:44.161Z,16.83
2018-12-21T21:46:12.565Z,14.40
2018-12-21T21:48:40.846Z,14.63
2018-12-21T21:51:09.158Z,13.67
2018-12-21T21:53:37.546Z,16.30
2018-12-21T21:56:05.944Z,15.00
2018-12-21T21:58:34.317Z,14.33
2018-12-21T22:01:02.636Z,18.57
2018-12-21T22:03:31.099Z,10.87
2018-12-21T22:05:59.479Z,13.70
2018-12-21T22:08:27.800Z,12.93
2018-12-21T22:11:01.859Z,16.10
2018-12-21T22:13:26.698Z,16.17
2018-12-21T22:16:26.840Z,12.07
2018-12-21T22:18:55.218Z,12.03
2018-12-21T22:21:23.890Z,8.60
2018-12-21T22:23:52.253Z,12.93
2018-12-21T22:26:20.682Z,13.53
2018-12-21T22:28:49.089Z,11.53
2018-12-21T22:31:17.374Z,13.40
2018-12-21T22:33:45.706Z,10.37
2018-12-21T22:36:14.085Z,8.30
2018-12-21T22:38:42.521Z,14.03
2018-12-21T22:41:10.885Z,7.83
2018-12-21T22:43:39.221Z,13.10
2018-12-21T22:46:08.049Z,10.33
2018-12-21T22:48:36.347Z,11.90
2018-12-21T22:51:04.702Z,13.83
2018-12-21T22:53:33.148Z,9.20
2018-12-21T22:56:01.398Z,10.63
2018-12-21T22:58:29.749Z,12.37
2018-12-21T23:00:58.221Z,8.13
2018-12-21T23:03:26.469Z,14.27
2018-12-21T23:05:54.758Z,9.60
2018-12-21T23:08:23.010Z,10.50
2018-12-21T23:10:51.450Z,11.67
2018-12-21T23:13:19.806Z,8.97
2018-12-21T23:15:48.909Z,8.50
2018-12-21T23:18:17.333Z,11.03
2018-12-21T23:20:45.625Z,10.13
2018-12-21T23:23:13.935Z,8.87
2018-12-21T23:25:42.392Z,8.77
2018-12-21T23:28:10.587Z,8.97
2018-12-21T23:30:39.341Z,7.33
2018-12-21T23:33:07.663Z,8.27
2018-12-21T23:35:35.909Z,7.87
2018-12-21T23:38:04.437Z,7.97
2018-12-21T23:40:32.906Z,7.77
2018-12-21T23:43:01.230Z,8.77
2018-12-21T23:45:29.579Z,5.87
2018-12-21T23:47:58.023Z,7.37
2018-12-21T23:50:26.535Z,5.30
2018-12-21T23:52:54.982Z,6.53
2018-12-21T23:55:23.561Z,7.87
2018-12-21T23:57:52.073Z,7.83
